Latest Weather Observations for Stenhouse Bay

IDS60801

Issued at 10:32 am CDT Tuesday 31 March 2015 (issued every 30 minutes, with the page automatically refreshed every 10 minutes)

About weather observations | Map of weather stations | Latest weather observations for SA | Other Formats
Station Details ID: 022049 Name: STENHOUSE BAY Lat: -35.28 Lon: 136.94 Height: 42.0 m
Data from the previous 72 hours. | See also: Recent months at Stenhouse Bay
Date/Time
CDT
Temp
°C
App
Temp
°C
Dew
Point
Rel
Hum
%
Delta-T
°C
Wind Press
QNH
hPa
Press
MSL
hPa
Rain
since 9 am
mm
Dir
 
Spd
km/h
Gust
km/h
Spd
kts
Gust
kts
31/10:30am 24.4 21.2 12.0 46 7.0 N 20 26 11 14 1023.1 1023.0 0.0
31/10:00am 21.5 21.0 13.7 61 4.5 NE 9 15 5 8 1023.3 1023.2 0.0
31/09:30am 19.7 18.6 13.2 66 3.7 NE 11 15 6 8 1023.3 1023.2 0.0
31/09:00am 18.3 16.8 13.0 71 3.0 NE 13 17 7 9 1023.2 1023.1 0.2
31/08:30am 17.5 14.8 13.0 75 2.5 NE 19 22 10 12 1022.9 1022.8 0.2
31/08:00am 17.0 13.8 13.1 78 2.2 NE 22 28 12 15 1022.5 1022.4 0.2
31/07:30am 16.3 13.8 13.4 83 1.6 NE 19 26 10 14 1022.5 1022.4 0.2
31/07:00am 16.8 15.4 15.5 92 0.8 NE 17 22 9 12 1022.5 1022.4 0.2
31/06:30am 17.1 16.3 16.0 93 0.6 NE 15 19 8 10 1022.3 1022.2 0.0
31/06:00am 17.1 17.0 16.1 94 0.6 NE 11 17 6 9 1022.3 1022.2 0.0
31/05:30am 16.9 17.2 16.1 95 0.5 NE 9 13 5 7 1022.6 1022.5 0.0
31/05:00am 16.8 17.5 16.0 95 0.5 ENE 7 9 4 5 1022.8 1022.7 0.0
31/04:30am 16.8 17.5 16.0 95 0.5 ENE 7 9 4 5 1023.0 1022.9 0.0
31/04:00am 16.5 17.2 15.5 94 0.6 ENE 6 7 3 4 1023.1 1023.0 0.0
31/03:30am 16.9 18.1 15.8 93 0.6 ENE 4 6 2 3 1023.6 1023.5 0.0
31/03:00am 17.1 18.3 16.0 93 0.6 E 4 6 2 3 1023.8 1023.7 0.0
31/02:30am 17.4 18.2 16.3 93 0.7 NE 7 9 4 5 1023.7 1023.6 0.0
31/02:00am 18.0 18.9 16.7 92 0.8 E 7 9 4 5 1023.8 1023.7 0.0
31/01:30am 18.2 18.3 16.5 90 1.0 E 11 15 6 8 1023.7 1023.6 0.0
31/01:00am 18.1 17.8 16.4 90 1.0 E 13 19 7 10 1023.5 1023.4 0.0
31/12:30am 18.2 17.5 16.5 90 1.0 E 15 20 8 11 1023.8 1023.7 0.0
31/12:00am 18.2 16.7 16.4 89 1.1 E 19 24 10 13 1023.9 1023.8 0.0
 
Date/Time
CDT
Temp
°C
App
Temp
°C
Dew
Point
Rel
Hum
%
Delta-T
°C
Wind Press
QNH
hPa
Press
MSL
hPa
Rain
since 9 am
mm
Dir
 
Spd
km/h
Gust
km/h
Spd
kts
Gust
kts
30/11:30pm 17.9 16.3 15.9 88 1.2 E 19 22 10 12 1024.2 1024.1 0.0
30/11:00pm 18.1 16.5 15.9 87 1.3 ESE 19 22 10 12 1024.4 1024.3 0.0
30/10:30pm 18.2 16.3 15.8 86 1.4 E 20 26 11 14 1024.4 1024.3 0.0
30/10:00pm 18.1 17.0 16.3 89 1.1 ESE 17 20 9 11 1024.4 1024.3 0.0
30/09:30pm 17.9 17.0 15.9 88 1.2 ESE 15 17 8 9 1024.3 1024.2 0.0
30/09:00pm 17.5 17.2 15.5 88 1.2 SE 11 13 6 7 1024.5 1024.4 0.0
30/08:30pm 17.5 17.6 15.5 88 1.2 SE 9 11 5 6 1024.5 1024.4 0.0
30/08:00pm 17.9 18.5 15.7 87 1.3 SSE 7 7 4 4 1024.3 1024.2 0.0
30/07:30pm 18.0 18.3 14.9 82 1.8 SE 7 7 4 4 1024.0 1023.9 0.0
30/07:00pm 19.3 19.7 14.8 75 2.6 ESE 6 6 3 3 1023.9 1023.8 0.0
30/06:30pm 20.1 20.7 15.3 74 2.8 ESE 6 7 3 4 1023.8 1023.7 0.0
30/06:00pm 20.3 20.7 15.3 73 2.9 E 7 7 4 4 1023.7 1023.6 0.0
30/05:30pm 20.7 21.0 15.0 70 3.3 E 7 9 4 5 1023.6 1023.5 0.0
30/05:00pm 21.1 20.8 14.5 66 3.9 ESE 9 11 5 6 1023.6 1023.5 0.0
30/04:30pm 21.3 20.9 14.0 63 4.2 ESE 9 11 5 6 1023.6 1023.5 0.0
30/04:00pm 20.7 19.9 13.9 65 3.9 SE 11 15 6 8 1023.7 1023.6 0.0
30/03:30pm 21.2 20.4 14.1 64 4.1 SE 11 15 6 8 1023.8 1023.7 0.0
30/03:00pm 20.6 19.5 14.3 67 3.7 SE 13 15 7 8 1024.1 1024.0 0.0
30/02:30pm 21.1 20.1 14.7 67 3.7 SE 13 17 7 9 1024.3 1024.2 0.0
30/02:00pm 20.8 19.2 14.0 65 3.9 SE 15 19 8 10 1024.5 1024.4 0.0
30/01:30pm 21.5 20.0 14.2 63 4.2 SE 15 19 8 10 1024.7 1024.6 0.0
30/01:00pm 21.4 20.3 14.3 64 4.2 ESE 13 17 7 9 1024.9 1024.8 0.0
30/12:30pm 21.1 20.3 15.0 68 3.6 ESE 13 15 7 8 1025.2 1025.1 0.0
30/12:00pm 20.6 20.1 14.9 70 3.3 E 11 15 6 8 1025.2 1025.1 0.0
30/11:30am 20.5 20.1 15.3 72 3.1 ESE 11 15 6 8 1025.6 1025.5 0.0
30/11:00am 19.3 19.1 14.6 74 2.7 SE 9 13 5 7 1025.8 1025.7 0.0
30/10:30am 19.0 18.7 14.3 74 2.7 SE 9 11 5 6 1025.8 1025.7 0.0
30/10:00am 18.9 18.7 13.7 72 3.0 SE 7 9 4 5 1025.8 1025.7 0.0
30/09:30am 18.4 18.2 13.7 74 2.7 SE 7 9 4 5 1025.5 1025.4 0.0
30/09:00am 17.8 18.2 13.7 77 2.3 SE 4 7 2 4 1025.2 1025.1 0.0
30/08:30am 16.6 16.8 14.1 85 1.4 SE 6 6 3 3 1024.8 1024.7 0.0
30/08:00am 15.5 16.1 14.2 92 0.7 SE 4 6 2 3 1024.4 1024.3 0.0
30/07:30am 15.1 15.0 14.0 93 0.6 SSE 7 9 4 5 1024.1 1024.0 0.0
30/07:00am 15.6 16.3 14.5 93 0.6 SSE 4 6 2 3 1023.8 1023.7 0.0
30/06:30am 15.3 16.2 14.0 92 0.7 S 2 6 1 3 1023.5 1023.4 0.0
30/06:00am 15.7 17.1 14.4 92 0.7 CALM 0 0 0 0 1023.4 1023.3 0.0
30/05:30am 15.4 16.3 14.1 92 0.7 S 2 4 1 2 1023.3 1023.2 0.0
30/05:00am 15.6 16.2 14.3 92 0.7 S 4 4 2 2 1023.0 1022.9 0.0
30/04:30am 16.0 17.4 14.4 90 0.9 CALM 0 0 0 0 1023.0 1022.9 0.0
30/04:00am 16.0 17.4 14.4 90 0.9 CALM 0 0 0 0 1023.0 1022.9 0.0
30/03:30am 15.9 16.9 14.3 90 0.9 SE 2 4 1 2 1023.1 1023.0 0.0
30/03:00am 15.7 15.8 13.9 89 1.0 SE 6 6 3 3 1023.0 1022.9 0.0
30/02:30am 15.9 16.0 13.9 88 1.1 SE 6 6 3 3 1023.4 1023.3 0.0
30/02:00am 15.9 16.3 13.7 87 1.2 SE 4 6 2 3 1023.5 1023.4 0.0
30/01:30am 15.7 15.7 13.5 87 1.2 SSE 6 7 3 4 1023.6 1023.5 0.0
30/01:00am 16.4 16.0 14.2 87 1.3 SE 9 9 5 5 1023.6 1023.5 0.0
30/12:30am 17.0 16.4 14.5 85 1.4 SSE 11 13 6 7 1023.8 1023.7 0.0
30/12:00am 17.0 16.3 14.3 84 1.5 SSE 11 15 6 8 1023.9 1023.8 0.0
 
Date/Time
CDT
Temp
°C
App
Temp
°C
Dew
Point
Rel
Hum
%
Delta-T
°C
Wind Press
QNH
hPa
Press
MSL
hPa
Rain
since 9 am
mm
Dir
 
Spd
km/h
Gust
km/h
Spd
kts
Gust
kts
29/11:30pm 17.0 16.0 14.5 85 1.4 S 13 15 7 8 1024.0 1023.9 0.0
29/11:00pm 17.3 16.3 14.6 84 1.6 SSW 13 19 7 10 1024.3 1024.2 0.0
29/10:30pm 17.4 16.1 14.7 84 1.6 SSW 15 19 8 10 1024.3 1024.2 0.0
29/10:00pm 17.3 16.3 14.6 84 1.6 SW 13 19 7 10 1024.1 1024.0 0.0
29/09:30pm 17.1 16.5 14.7 86 1.4 SW 11 17 6 9 1023.7 1023.6 0.0
29/09:00pm 17.2 16.6 14.7 85 1.4 SW 11 15 6 8 1023.2 1023.1 0.0
29/08:30pm 17.1 16.0 14.4 84 1.5 SW 13 17 7 9 1023.1 1023.0 0.0
29/08:00pm 17.2 16.6 14.5 84 1.6 SW 11 15 6 8 1022.8 1022.7 0.0
29/07:30pm 17.4 16.7 14.3 82 1.8 SW 11 13 6 7 1022.6 1022.5 0.0
29/07:00pm 18.4 18.1 14.3 77 2.4 WSW 9 13 5 7 1022.4 1022.3 0.0
29/06:30pm 19.1 18.3 14.1 73 2.9 SW 11 17 6 9 1022.1 1022.0 0.0
29/06:00pm 19.8 18.9 14.8 73 2.9 WSW 13 19 7 10 1022.0 1021.9 0.0
29/05:30pm 20.1 18.8 14.9 72 3.0 SW 15 19 8 10 1021.9 1021.8 0.0
29/05:00pm 20.2 19.0 15.0 72 3.1 SW 15 19 8 10 1021.9 1021.8 0.0
29/04:30pm 20.9 19.3 15.0 69 3.5 SW 17 20 9 11 1021.8 1021.7 0.0
29/04:00pm 20.4 18.8 15.0 71 3.2 SW 17 22 9 12 1021.9 1021.8 0.0
29/03:30pm 20.1 18.0 14.7 71 3.1 SW 19 20 10 11 1021.9 1021.8 0.0
29/03:00pm 20.7 18.6 14.6 68 3.6 SW 19 22 10 12 1022.1 1022.0 0.0
29/02:30pm 20.9 19.1 14.5 67 3.7 SW 17 24 9 13 1022.2 1022.1 0.0
29/02:00pm 20.2 18.7 14.1 68 3.5 SW 15 20 8 11 1022.4 1022.3 0.0
29/01:30pm 21.4 20.5 14.8 66 3.9 SW 13 19 7 10 1022.6 1022.5 0.0
29/01:00pm 20.4 20.1 14.5 69 3.4 SSW 9 13 5 7 1022.8 1022.7 0.0
29/12:30pm 19.9 19.3 14.7 72 3.0 SSW 11 13 6 7 1022.9 1022.8 0.0
29/12:00pm 20.0 19.9 15.0 73 2.9 SSW 9 11 5 6 1023.0 1022.9 0.0
29/11:30am 19.5 18.9 14.7 74 2.8 SW 11 15 6 8 1023.2 1023.1 0.0
29/11:00am 19.7 19.7 15.1 75 2.7 SW 9 13 5 7 1023.1 1023.0 0.0
29/10:30am 19.0 19.2 14.1 73 2.8 S 6 9 3 5 1023.1 1023.0 0.0
29/10:00am 19.0 19.3 13.4 70 3.2 S 4 7 2 4 1023.0 1022.9 0.0
29/09:30am 18.8 18.9 12.8 68 3.4 ENE 4 6 2 3 1022.8 1022.7 0.0
29/09:00am 17.6 18.4 12.7 73 2.7 CALM 0 0 0 0 1022.6 1022.5 0.0
29/08:30am 16.3 16.9 11.9 75 2.4 CALM 0 0 0 0 1022.2 1022.1 0.0
29/08:00am 15.4 15.9 11.6 78 2.1 CALM 0 0 0 0 1022.1 1022.0 0.0
29/07:30am 15.2 15.6 11.2 77 2.1 CALM 0 0 0 0 1021.8 1021.7 0.0
29/07:00am 16.6 16.9 13.3 81 1.9 SSW 4 6 2 3 1021.4 1021.3 0.0
29/06:30am 16.4 16.0 13.1 81 1.8 WSW 7 7 4 4 1021.2 1021.1 0.0
29/06:00am 15.9 14.9 12.3 79 2.0 W 9 11 5 6 1021.0 1020.9 0.0
29/05:30am 15.0 14.6 11.0 77 2.1 NW 4 4 2 2 1020.7 1020.6 0.0
29/05:00am 15.0 15.0 11.0 77 2.1 NNW 2 2 1 1 1020.4 1020.3 0.0
29/04:30am 14.7 14.6 10.9 78 2.0 NNW 2 4 1 2 1020.5 1020.4 0.0
29/04:00am 14.4 14.4 11.0 80 1.8 NNW 2 4 1 2 1020.3 1020.2 0.0
29/03:30am 13.9 13.0 10.7 81 1.7 NNW 6 6 3 3 1020.4 1020.3 0.0
29/03:00am 13.9 13.0 10.5 80 1.8 NNW 6 7 3 4 1020.6 1020.5 0.0
29/02:30am 14.1 13.2 10.5 79 1.9 NNW 6 6 3 3 1020.8 1020.7 0.0
29/02:00am 14.5 13.7 11.1 80 1.8 N 6 9 3 5 1020.9 1020.8 0.0
29/01:30am 14.6 13.8 11.0 79 1.9 N 6 6 3 3 1021.1 1021.0 0.0
29/01:00am 14.7 14.0 11.3 80 1.8 N 6 7 3 4 1021.2 1021.1 0.0
29/12:30am 14.1 13.1 11.1 82 1.6 NNW 7 9 4 5 1021.6 1021.5 0.0
29/12:00am 14.5 13.8 11.3 81 1.7 N 6 7 3 4 1021.6 1021.5 0.0
 
Date/Time
CDT
Temp
°C
App
Temp
°C
Dew
Point
Rel
Hum
%
Delta-T
°C
Wind Press
QNH
hPa
Press
MSL
hPa
Rain
since 9 am
mm
Dir
 
Spd
km/h
Gust
km/h
Spd
kts
Gust
kts
28/11:30pm 14.3 13.9 11.1 81 1.7 NNW 4 6 2 3 1021.8 1021.7 0.0
28/11:00pm 14.4 14.0 11.2 81 1.7 N 4 6 2 3 1021.7 1021.6 0.0
28/10:30pm 14.6 14.3 11.6 82 1.6 N 4 6 2 3 1021.8 1021.7 0.0
28/10:00pm 15.1 14.4 11.5 79 1.9 NNE 6 7 3 4 1021.9 1021.8 0.0
28/09:30pm 15.8 15.3 12.2 79 2.0 E 6 6 3 3 1021.9 1021.8 0.0
28/09:00pm 15.9 15.4 11.9 77 2.2 E 6 7 3 4 1021.8 1021.7 0.0
28/08:30pm 15.9 15.1 11.1 73 2.6 E 6 7 3 4 1021.6 1021.5 0.0
28/08:00pm 16.2 15.4 11.2 72 2.7 ESE 6 7 3 4 1021.3 1021.2 0.0
28/07:30pm 16.6 15.7 11.5 72 2.8 ESE 7 9 4 5 1021.1 1021.0 0.0
28/07:00pm 17.1 15.8 11.2 68 3.2 SE 9 13 5 7 1020.8 1020.7 0.0
28/06:30pm 18.3 17.3 11.1 63 3.9 SSE 7 9 4 5 1021.0 1020.9 0.0
28/06:00pm 18.6 17.1 10.7 60 4.3 SE 9 11 5 6 1020.9 1020.8 0.0
28/05:30pm 19.0 17.8 10.3 57 4.7 SSE 7 11 4 6 1020.9 1020.8 0.0
28/05:00pm 18.7 17.0 9.8 56 4.7 SSE 9 13 5 7 1020.9 1020.8 0.0
28/04:30pm 19.9 17.8 9.8 52 5.4 S 11 15 6 8 1021.0 1020.9 0.0
28/04:00pm 19.0 17.0 10.0 56 4.8 S 11 15 6 8 1021.3 1021.2 0.0
28/03:30pm 19.0 17.8 10.3 57 4.7 SE 7 9 4 5 1021.7 1021.6 0.0
28/03:00pm 19.5 17.5 10.2 55 5.0 SE 11 15 6 8 1021.9 1021.8 0.0
28/02:30pm 20.3 19.5 11.0 55 5.1 S 6 11 3 6 1022.4 1022.3 0.0
28/02:00pm 22.2 20.1 11.3 50 6.1 NW 13 22 7 12 1022.7 1022.6 0.0
28/01:30pm 21.8 20.1 11.2 51 5.9 N 11 22 6 12 1023.2 1023.1 0.0
28/01:00pm 19.9 18.4 10.6 55 5.1 NNW 9 17 5 9 1023.4 1023.3 0.0
28/12:30pm 19.7 18.2 10.7 56 4.9 N 9 15 5 8 1023.8 1023.7 0.0
28/12:00pm 19.9 17.0 11.1 57 4.8 N 17 24 9 13 1024.2 1024.1 0.0
28/11:30am 18.1 16.7 11.0 63 3.8 N 9 15 5 8 1024.4 1024.3 0.0
28/11:00am 18.2 16.3 11.7 66 3.6 NE 13 17 7 9 1024.7 1024.6 0.0

Other Formats:

Comma delimited format used in spreadsheet applications
http://www.bom.gov.au/fwo/IDS60801/IDS60801.95806.axf

JavaScript Object Notation format (JSON) in row-major order
http://www.bom.gov.au/fwo/IDS60801/IDS60801.95806.json